Gonzales, Texas
Current Conditions -  °F | °C
As of 6:45 AM on Thursday 30 Oct 2014 (Local Time) from KHYI Reporting Station
Few Clouds Few Clouds  
Wind Chill: 63°   Ceiling: Unl
Heat Index: 63°   Visibility: 7mi
Dew Point: 55°   Wind: 6mph
Humidity: 77%   Direction: 90°E
Pressure: 30.12"   Gusts: NA
Location:  29.5°N, 97.45°W
Report Text: KHYI 301145Z 09005KT 7SM FEW016 17/13 A3012 RMK FIRST
Loading
Personal Weather Stations






























Interactive Weather Map
Tropical Storm Tracking
New forecast layout! Learn more

10-Day Weather Forecast

Advertisements
Track Severe Weather on mobile